Latest Weather Observations for Kalumburu

IDW60801

Issued at 7:33 pm WST Friday 30 September 2016 (issued every 30 minutes, with the page automatically refreshed every 10 minutes)

About weather observations | Map of weather stations | Latest weather observations for WA | Other Formats
Station Details ID: 001019 Name: KALUMBURU Lat: -14.30 Lon: 126.65 Height: 23.0 m
Data from the previous 72 hours. | See also: Recent months at Kalumburu
Date/Time
WST
Temp
°C
App
Temp
°C
Dew
Point
°C
Rel
Hum
%
Delta-T
°C
Wind Press
QNH
hPa
Press
MSL
hPa
Rain since
9am
mm
Dir  Spd
km/h
Gust
km/h
Spd
kts
Gust
kts
30/07:30pm 29.1 31.4 22.8 69 4.3 NNW 15 22 8 12 1008.6 1008.4 0.0
30/07:00pm 29.3 31.7 22.3 66 4.8 NNW 13 22 7 12 1008.1 1007.9 0.0
30/06:30pm 29.7 31.6 21.4 61 5.6 N 13 19 7 10 1007.9 1007.7 0.0
30/06:00pm 30.1 31.2 20.4 56 6.4 N 15 24 8 13 1007.5 1007.3 0.0
30/05:30pm 30.7 30.9 19.4 51 7.4 N 17 26 9 14 1007.1 1006.9 0.0
30/05:00pm 31.4 30.8 19.7 49 7.7 N 22 33 12 18 1006.5 1006.3 0.0
30/04:30pm 32.8 31.7 17.8 40 9.7 N 20 33 11 18 1006.0 1005.8 0.0
30/04:00pm 32.8 31.9 20.7 49 8.1 NNW 26 39 14 21 1005.4 1005.2 0.0
30/03:30pm 33.9 33.5 21.0 47 8.7 NNW 24 35 13 19 1005.1 1004.9 0.0
30/03:00pm 34.2 34.3 21.9 48 8.4 N 24 37 13 20 1005.0 1004.8 0.0
30/02:30pm 33.5 33.1 22.3 52 7.7 N 28 37 15 20 1005.1 1004.9 0.0
30/02:00pm 34.4 34.2 22.8 51 8.0 NNW 28 37 15 20 1005.4 1005.2 0.0
30/01:30pm 34.9 34.8 22.9 49 8.3 NNW 28 39 15 21 1005.6 1005.4 0.0
30/01:00pm 34.5 34.0 22.2 48 8.5 N 28 43 15 23 1006.1 1005.9 0.0
30/12:30pm 35.3 35.2 22.3 47 8.9 N 26 37 14 20 1006.3 1006.1 0.0
30/12:00pm 35.2 34.7 21.5 45 9.3 N 26 35 14 19 1006.8 1006.6 0.0
30/11:30am 35.8 35.0 20.1 40 10.5 N 24 33 13 18 1007.3 1007.1 0.0
30/11:00am 36.2 35.5 18.3 34 11.7 NNW 19 30 10 16 1007.7 1007.5 0.0
30/10:30am 37.0 37.3 16.0 28 13.4 WNW 9 20 5 11 1008.2 1008.0 0.0
30/10:00am 36.4 36.9 16.5 30 12.7 W 9 17 5 9 1008.6 1008.4 0.0
30/09:30am 36.0 37.7 18.6 36 11.4 NW 7 20 4 11 1009.1 1008.9 0.0
30/09:00am 34.0 36.0 20.0 43 9.3 SW 9 15 5 8 1009.5 1009.3 0.0
30/08:30am 32.9 36.2 21.4 50 7.8 WNW 6 9 3 5 1009.9 1009.7 0.0
30/08:00am 31.6 34.5 21.7 55 6.7 W 9 13 5 7 1010.0 1009.8 0.0
30/07:30am 30.5 34.2 23.2 65 5.0 WNW 9 11 5 6 1009.9 1009.7 0.0
30/07:00am 29.7 33.4 23.2 68 4.5 NW 9 15 5 8 1009.6 1009.4 0.0
30/06:30am 29.0 33.2 23.4 72 3.8 W 7 11 4 6 1009.2 1009.0 0.0
30/06:00am 28.2 32.5 23.6 76 3.2 WNW 7 11 4 6 1009.1 1008.9 0.0
30/05:30am 27.8 32.2 23.4 77 3.0 NW 6 7 3 4 1008.8 1008.6 0.0
30/05:00am 28.0 32.5 23.6 77 3.0 NW 6 9 3 5 1008.7 1008.5 0.0
30/04:30am 28.0 32.2 23.4 76 3.2 NW 7 11 4 6 1008.4 1008.2 0.0
30/04:00am 28.1 31.9 23.5 76 3.2 NW 9 13 5 7 1008.1 1007.9 0.0
30/03:30am 28.2 32.6 23.8 77 3.0 NW 7 11 4 6 1008.0 1007.8 0.0
30/03:00am 28.1 32.1 23.7 77 3.0 NW 9 13 5 7 1008.1 1007.9 0.0
30/02:30am 28.0 32.3 23.6 77 3.0 WNW 7 9 4 5 1008.2 1008.0 0.0
30/02:00am 27.8 32.1 23.6 78 2.9 N 7 9 4 5 1008.0 1007.8 0.0
30/01:30am 28.0 32.3 23.6 77 3.0 NW 7 9 4 5 1008.4 1008.2 0.0
30/01:00am 28.0 32.5 23.6 77 3.0 NW 6 9 3 5 1008.4 1008.2 0.0
30/12:30am 28.2 32.6 23.8 77 3.0 NW 7 11 4 6 1008.7 1008.5 0.0
30/12:00am 28.2 32.6 23.8 77 3.0 NNW 7 9 4 5 1008.8 1008.6 0.0
 
Date/Time
WST
Temp
°C
App
Temp
°C
Dew
Point
°C
Rel
Hum
%
Delta-T
°C
Wind Press
QNH
hPa
Press
MSL
hPa
Rain since
9am
mm
Dir  Spd
km/h
Gust
km/h
Spd
kts
Gust
kts
29/11:30pm 28.4 32.4 23.8 76 3.2 NNW 9 15 5 8 1009.1 1008.9 0.0
29/11:00pm 28.7 32.2 23.6 74 3.5 NW 11 17 6 9 1009.5 1009.3 0.0
29/10:30pm 29.1 33.0 24.2 75 3.4 NNW 11 17 6 9 1009.6 1009.4 0.0
29/10:00pm 29.1 32.9 24.0 74 3.5 NNW 11 15 6 8 1009.7 1009.5 0.0
29/09:30pm 29.0 32.9 24.3 76 3.3 NNW 11 15 6 8 1009.7 1009.5 0.0
29/09:00pm 29.0 32.9 24.3 76 3.3 N 11 15 6 8 1009.6 1009.4 0.0
29/08:30pm 29.0 33.2 24.1 75 3.4 NNW 9 15 5 8 1009.4 1009.2 0.0
29/08:00pm 29.0 33.1 23.9 74 3.5 NNW 9 11 5 6 1009.2 1009.0 0.0
29/07:30pm 29.2 33.0 24.1 74 3.5 N 11 17 6 9 1009.0 1008.8 0.0
29/07:00pm 29.4 32.6 24.3 74 3.6 N 15 22 8 12 1008.4 1008.2 0.0
29/06:30pm 29.4 32.6 24.3 74 3.5 N 15 22 8 12 1007.9 1007.7 0.0
29/06:00pm 29.7 32.4 24.1 72 3.9 N 17 24 9 13 1007.4 1007.2 0.0
29/05:30pm 30.1 32.3 24.0 70 4.2 N 19 30 10 16 1006.8 1006.6 0.0
29/05:00pm 31.5 32.8 23.3 61 5.7 N 22 30 12 16 1006.0 1005.8 0.0
29/04:30pm 32.4 33.6 22.5 56 6.8 N 20 32 11 17 1005.3 1005.1 0.0
29/04:00pm 34.2 34.9 22.3 50 8.2 N 22 33 12 18 1005.2 1005.0 0.0
29/03:30pm 35.4 34.4 19.7 39 10.4 N 24 35 13 19 1005.0 1004.8 0.0
29/03:00pm 36.5 34.6 18.6 35 11.8 N 26 35 14 19 1005.0 1004.8 0.0
29/02:30pm 37.1 34.6 16.1 29 13.4 NNW 24 33 13 18 1005.0 1004.8 0.0
29/02:00pm 36.2 34.4 15.9 30 12.9 NNW 20 28 11 15 1005.1 1004.9 0.0
29/01:30pm 37.1 36.4 18.6 33 12.2 N 20 32 11 17 1005.4 1005.2 0.0
29/01:00pm 38.9 37.6 15.9 25 14.7 NNW 17 26 9 14 1005.8 1005.6 0.0
29/12:30pm 39.4 37.9 10.7 18 17.1 NW 9 15 5 8 1006.3 1006.1 0.0
29/12:00pm 39.0 37.7 11.2 19 16.7 SW 9 19 5 10 1006.8 1006.6 0.0
29/11:30am 38.3 37.0 11.4 20 16.1 SW 9 20 5 11 1007.5 1007.3 0.0
29/11:00am 37.7 36.5 11.6 21 15.7 SW 9 15 5 8 1008.1 1007.9 0.0
29/10:30am 37.9 37.0 12.5 22 15.4 SW 9 17 5 9 1008.8 1008.6 0.0
29/10:00am 36.8 36.0 11.6 22 15.1 S 7 13 4 7 1009.4 1009.2 0.0
29/09:30am 36.5 35.5 13.3 25 14.2 SSE 11 19 6 10 1009.9 1009.7 0.0
29/09:00am 35.6 35.1 13.7 27 13.4 SSE 9 19 5 10 1010.2 1010.0 0.0
29/08:30am 34.3 34.3 15.2 31 11.9 S 9 15 5 8 1010.4 1010.2 0.0
29/08:00am 32.8 32.7 14.9 34 11.1 S 9 15 5 8 1010.6 1010.4 0.0
29/07:30am 31.2 33.8 19.2 48 7.8 SSE 4 9 2 5 1010.7 1010.5 0.0
29/07:00am 29.5 32.4 20.6 58 5.9 NW 6 9 3 5 1010.5 1010.3 0.0
29/06:30am 27.0 30.9 20.3 66 4.4 CALM 0 0 0 0 1010.4 1010.2 0.0
29/06:00am 25.3 28.9 19.7 71 3.6 CALM 0 0 0 0 1009.8 1009.6 0.0
29/05:30am 23.6 26.7 18.7 74 3.1 CALM 0 0 0 0 1009.4 1009.2 0.0
29/05:00am 23.0 26.1 18.7 77 2.7 CALM 0 0 0 0 1009.0 1008.8 0.0
29/04:30am 23.0 25.9 18.3 75 3.0 CALM 0 0 0 0 1008.7 1008.5 0.0
29/04:00am 23.5 26.3 17.9 71 3.5 CALM 0 0 0 0 1008.5 1008.3 0.0
29/03:30am 23.9 26.8 18.1 70 3.6 CALM 0 0 0 0 1008.3 1008.1 0.0
29/03:00am 24.0 26.8 18.0 69 3.8 CALM 0 0 0 0 1008.3 1008.1 0.0
29/02:30am 23.9 26.5 17.6 68 3.9 CALM 0 0 0 0 1008.2 1008.0 0.0
29/02:00am 24.3 27.0 17.8 67 4.1 CALM 0 0 0 0 1008.2 1008.0 0.0
29/01:30am 23.7 26.4 17.7 69 3.7 CALM 0 0 0 0 1008.3 1008.1 0.0
29/01:00am 23.8 26.4 17.5 68 3.9 CALM 0 0 0 0 1008.5 1008.3 0.0
29/12:30am 24.1 27.0 18.1 69 3.8 CALM 0 0 0 0 1009.0 1008.8 0.0
29/12:00am 24.2 26.8 17.4 65 4.2 CALM 0 0 0 0 1009.4 1009.2 0.0
 
Date/Time
WST
Temp
°C
App
Temp
°C
Dew
Point
°C
Rel
Hum
%
Delta-T
°C
Wind Press
QNH
hPa
Press
MSL
hPa
Rain since
9am
mm
Dir  Spd
km/h
Gust
km/h
Spd
kts
Gust
kts
28/11:30pm 24.4 27.0 17.6 66 4.2 CALM 0 0 0 0 1009.8 1009.6 0.0
28/11:00pm 24.7 27.3 17.4 64 4.6 CALM 0 0 0 0 1010.0 1009.8 0.0
28/10:30pm 25.0 27.6 17.5 63 4.7 CALM 0 0 0 0 1010.2 1010.0 0.0
28/10:00pm 25.7 28.3 17.6 61 5.1 CALM 0 0 0 0 1010.3 1010.1 0.0
28/09:30pm 26.1 28.6 17.2 58 5.6 CALM 0 0 0 0 1010.3 1010.1 0.0
28/09:00pm 27.0 29.5 17.2 55 6.1 CALM 0 0 0 0 1010.2 1010.0 0.0
28/08:30pm 28.5 29.6 16.7 48 7.4 NNW 6 9 3 5 1009.8 1009.6 0.0
28/08:00pm 30.3 31.1 17.4 46 8.2 WNW 9 13 5 7 1009.8 1009.6 0.0
28/07:30pm 30.2 31.2 16.9 44 8.4 NW 7 11 4 6 1009.4 1009.2 0.0
28/07:00pm 30.4 30.5 14.5 38 9.7 NNW 7 11 4 6 1009.2 1009.0 0.0
28/06:30pm 31.1 31.1 15.1 38 9.8 NNW 9 15 5 8 1008.8 1008.6 0.0
28/06:00pm 31.6 31.0 16.7 40 9.4 N 15 22 8 12 1008.5 1008.3 0.0
28/05:30pm 32.1 31.0 16.4 39 9.9 N 17 26 9 14 1008.0 1007.8 0.0
28/05:00pm 33.1 31.5 15.1 33 11.2 NNW 17 26 9 14 1007.7 1007.5 0.0
28/04:30pm 34.3 30.7 12.0 25 13.3 NNW 22 30 12 16 1007.3 1007.1 0.0
28/04:00pm 35.1 31.0 11.5 24 14.0 N 24 35 13 19 1007.2 1007.0 0.0
28/03:30pm 35.8 31.9 10.8 22 14.7 NNW 22 33 12 18 1007.0 1006.8 0.0
28/03:00pm 36.6 32.7 10.7 21 15.3 NNW 22 32 12 17 1007.1 1006.9 0.0
28/02:30pm 37.2 33.0 9.7 19 16.0 NNW 22 35 12 19 1007.1 1006.9 0.0
28/02:00pm 37.7 32.7 6.6 15 17.3 N 22 32 12 17 1007.1 1006.9 0.0
28/01:30pm 38.3 33.4 7.1 15 17.5 NNW 22 32 12 17 1007.4 1007.2 0.0
28/01:00pm 38.4 34.0 7.2 15 17.6 NNW 20 30 11 16 1007.7 1007.5 0.0
28/12:30pm 38.9 35.1 7.6 15 17.8 NW 17 28 9 15 1008.1 1007.9 0.0
28/12:00pm 38.9 34.7 7.6 15 17.8 NNW 19 30 10 16 1008.6 1008.4 0.0
28/11:30am 37.9 36.1 9.5 18 16.5 SE 9 13 5 7 1009.2 1009.0 0.0
28/11:00am 37.5 34.9 9.2 18 16.4 NNW 13 20 7 11 1009.7 1009.5 0.0
28/10:30am 37.5 36.8 11.5 21 15.5 NE 6 13 3 7 1010.2 1010.0 0.0
28/10:00am 36.7 35.6 10.8 21 15.3 NNW 7 13 4 7 1010.7 1010.5 0.0
28/09:30am 36.2 35.2 12.4 24 14.3 W 9 11 5 6 1011.2 1011.0 0.0
28/09:00am 35.2 33.6 11.6 24 14.0 S 11 15 6 8 1011.6 1011.4 0.0
28/08:30am 34.1 33.1 12.4 26 13.0 SSE 9 15 5 8 1011.9 1011.7 0.0
28/08:00am 32.1 31.6 13.8 33 11.1 S 9 15 5 8 1011.8 1011.6 0.0
28/07:30am 30.7 30.8 15.5 39 9.4 SSE 9 13 5 7 1011.6 1011.4 0.0
28/07:00am 28.5 30.9 19.7 59 5.7 S 6 7 3 4 1011.5 1011.3 0.0
28/06:30am 26.2 30.5 21.2 74 3.3 CALM 0 0 0 0 1011.1 1010.9 0.0
28/06:00am 23.0 26.6 19.8 82 2.1 CALM 0 0 0 0 1010.8 1010.6 0.0
28/05:30am 22.3 25.9 19.7 85 1.7 CALM 0 0 0 0 1010.3 1010.1 0.0
28/05:00am 22.3 25.7 19.3 83 1.9 CALM 0 0 0 0 1009.9 1009.7 0.0
28/04:30am 22.5 26.2 19.9 85 1.7 CALM 0 0 0 0 1009.6 1009.4 0.0
28/04:00am 22.4 25.7 19.2 82 2.0 CALM 0 0 0 0 1009.3 1009.1 0.0
28/03:30am 22.6 25.9 19.0 80 2.3 CALM 0 0 0 0 1009.0 1008.8 0.0
28/03:00am 22.9 26.4 19.5 81 2.2 CALM 0 0 0 0 1008.9 1008.7 0.0
28/02:30am 23.1 26.7 19.7 81 2.2 CALM 0 0 0 0 1008.9 1008.7 0.0
28/02:00am 23.4 27.0 19.8 80 2.3 CALM 0 0 0 0 1009.0 1008.8 0.0
28/01:30am 23.7 27.2 19.6 78 2.6 CALM 0 0 0 0 1009.2 1009.0 0.0
28/01:00am 24.0 27.6 19.7 77 2.8 CALM 0 0 0 0 1009.4 1009.2 0.0
28/12:30am 24.4 28.1 19.9 76 2.9 CALM 0 0 0 0 1009.8 1009.6 0.0
28/12:00am 24.6 27.9 19.2 72 3.5 CALM 0 0 0 0 1010.2 1010.0 0.0
 
Date/Time
WST
Temp
°C
App
Temp
°C
Dew
Point
°C
Rel
Hum
%
Delta-T
°C
Wind Press
QNH
hPa
Press
MSL
hPa
Rain since
9am
mm
Dir  Spd
km/h
Gust
km/h
Spd
kts
Gust
kts
27/11:30pm 24.9 28.1 18.8 69 3.9 CALM 0 0 0 0 1010.4 1010.2 0.0
27/11:00pm 25.5 28.6 18.7 66 4.3 CALM 0 0 0 0 1010.7 1010.5 0.0
27/10:30pm 25.8 28.9 18.7 65 4.5 CALM 0 4 0 2 1011.0 1010.8 0.0
27/10:00pm 26.3 28.9 18.4 61 5.0 WNW 2 6 1 3 1011.1 1010.9 0.0
27/09:30pm 26.8 29.7 18.1 59 5.5 CALM 0 6 0 3 1011.2 1011.0 0.0
27/09:00pm 28.3 30.0 18.1 54 6.5 NW 6 7 3 4 1011.0 1010.8 0.0
27/08:30pm 28.9 30.7 18.4 53 6.7 NW 6 11 3 6 1010.8 1010.6 0.0
27/08:00pm 29.4 31.1 17.2 47 7.7 NW 4 7 2 4 1010.5 1010.3 0.0

Other Formats:

Comma delimited format used in spreadsheet applications
http://www.bom.gov.au/fwo/IDW60801/IDW60801.94100.axf

JavaScript Object Notation format (JSON) in row-major order
http://www.bom.gov.au/fwo/IDW60801/IDW60801.94100.json